createdAt,value
2018-03-16T00:03:24.973Z,98417
2018-03-16T00:13:26.598Z,98435
2018-03-16T00:23:28.886Z,98441
2018-03-16T00:33:30.441Z,98448
2018-03-16T00:43:32.038Z,98452
2018-03-16T00:53:33.539Z,98455
2018-03-16T01:03:35.067Z,98463
2018-03-16T01:13:36.601Z,98466
2018-03-16T01:23:38.181Z,98470
2018-03-16T01:33:39.777Z,98464
2018-03-16T01:43:41.334Z,98459
2018-03-16T01:53:42.854Z,98462
2018-03-16T02:03:44.400Z,98460
2018-03-16T02:13:45.957Z,98455
2018-03-16T02:23:47.496Z,98461
2018-03-16T02:33:49.101Z,98474
2018-03-16T02:43:50.617Z,98466
2018-03-16T02:53:53.126Z,98466
2018-03-16T03:03:54.639Z,98467
2018-03-16T03:13:57.838Z,98471
2018-03-16T03:23:59.406Z,98472
2018-03-16T03:34:00.953Z,98476
2018-03-16T03:44:02.482Z,98478
2018-03-16T03:54:04.745Z,98485
2018-03-16T04:04:06.277Z,98480
2018-03-16T04:14:07.861Z,98484
2018-03-16T04:24:09.476Z,98488
2018-03-16T04:34:11.031Z,98497
2018-03-16T04:44:12.564Z,98509
2018-03-16T04:54:14.109Z,98503
2018-03-16T05:04:15.651Z,98513
2018-03-16T05:14:17.164Z,98519
2018-03-16T05:24:18.694Z,98517
2018-03-16T05:34:20.289Z,98545
2018-03-16T05:44:22.616Z,98534
2018-03-16T05:54:24.872Z,98551
2018-03-16T06:04:26.454Z,98564
2018-03-16T06:14:28.192Z,98576
2018-03-16T06:24:29.737Z,98567
2018-03-16T06:34:32.028Z,98570
2018-03-16T06:44:33.787Z,98582
2018-03-16T06:54:35.305Z,98587
2018-03-16T07:04:36.865Z,98600
2018-03-16T07:14:38.615Z,98608
2018-03-16T07:24:40.170Z,98627
2018-03-16T07:34:42.454Z,98620
2018-03-16T07:44:44.014Z,98635
2018-03-16T07:54:45.550Z,98640
2018-03-16T08:04:47.108Z,98656
2018-03-16T08:14:48.632Z,98676
2018-03-16T08:24:50.368Z,98682
2018-03-16T08:34:51.916Z,98692
2018-03-16T08:44:53.487Z,98685
2018-03-16T08:54:55.775Z,98690
2018-03-16T09:04:57.322Z,98695
2018-03-16T09:14:58.862Z,98698
2018-03-16T09:25:00.429Z,98695
2018-03-16T09:35:02.033Z,98699
2018-03-16T09:45:03.604Z,98695
2018-03-16T09:55:23.641Z,98709
2018-03-16T10:05:25.278Z,98708
2018-03-16T10:15:26.799Z,98714
2018-03-16T10:25:28.310Z,98714
2018-03-16T10:35:29.857Z,98707
2018-03-16T10:45:31.478Z,98719
2018-03-16T10:55:33.036Z,98721
2018-03-16T11:26:33.930Z,98728
2018-03-16T11:36:35.505Z,98732
2018-03-16T11:46:37.049Z,98730
2018-03-16T11:56:39.417Z,98725
2018-03-16T12:06:40.973Z,98729
2018-03-16T12:16:43.238Z,98733
2018-03-16T12:26:44.770Z,98726
2018-03-16T12:36:46.333Z,98715
2018-03-16T12:46:48.893Z,98712
2018-03-16T12:56:50.407Z,98713
2018-03-16T13:06:52.721Z,98705
2018-03-16T13:16:54.819Z,98711
2018-03-16T13:26:56.659Z,98717
2018-03-16T13:36:58.498Z,98726
2018-03-16T13:47:00.637Z,98720
2018-03-16T13:57:02.473Z,98708
2018-03-16T14:07:05.196Z,98715
2018-03-16T14:17:07.245Z,98726
2018-03-16T14:27:09.514Z,98727
2018-03-16T14:37:13.556Z,98726
2018-03-16T14:47:15.338Z,98738
2018-03-16T14:57:17.371Z,98742
2018-03-16T15:07:19.165Z,98746
2018-03-16T15:17:21.298Z,98751
2018-03-16T15:27:23.427Z,98750
2018-03-16T15:37:25.236Z,98752
2018-03-16T15:47:27.943Z,98750
2018-03-16T15:57:30.069Z,98760
2018-03-16T16:07:32.688Z,98737
2018-03-16T16:17:34.406Z,98748
2018-03-16T16:27:36.891Z,98756
2018-03-16T16:37:38.951Z,98770
2018-03-16T16:47:41.448Z,98761
2018-03-16T16:57:43.171Z,98761
2018-03-16T17:07:44.795Z,98778
2018-03-16T17:17:46.315Z,98796
2018-03-16T17:27:47.897Z,98809
2018-03-16T17:37:49.715Z,98817
2018-03-16T17:47:52.597Z,98837
2018-03-16T17:57:54.869Z,98839
2018-03-16T18:08:00.208Z,98849
2018-03-16T18:18:04.467Z,98864
2018-03-16T18:28:06.971Z,98862
2018-03-16T18:38:09.340Z,98871
2018-03-16T18:48:10.980Z,98877
2018-03-16T18:58:12.877Z,98889
2018-03-16T19:08:15.517Z,98899
2018-03-16T19:18:17.611Z,98901
2018-03-16T19:28:19.450Z,98899
2018-03-16T19:38:21.170Z,98905
2018-03-16T19:48:24.988Z,98908
2018-03-16T19:58:27.907Z,98914
2018-03-16T20:08:29.883Z,98925
2018-03-16T20:18:32.546Z,98922
2018-03-16T20:28:34.517Z,98938
2018-03-16T20:38:37.180Z,98944
2018-03-16T20:48:38.820Z,98956
2018-03-16T20:58:40.709Z,98961
2018-03-16T21:08:42.806Z,98970
2018-03-16T21:18:45.663Z,98963
2018-03-16T21:28:48.654Z,98987
2018-03-16T21:38:50.710Z,98974
2018-03-16T21:48:52.516Z,98958
2018-03-16T21:58:55.228Z,98976
2018-03-16T22:08:57.080Z,98960
2018-03-16T22:19:00.045Z,98964
2018-03-16T22:29:02.029Z,98951
2018-03-16T22:39:03.864Z,98970
2018-03-16T22:49:05.988Z,98970
2018-03-16T22:59:08.069Z,98955
2018-03-16T23:09:10.699Z,98949
2018-03-16T23:19:12.522Z,98938
2018-03-16T23:29:16.102Z,98959
2018-03-16T23:39:18.730Z,98960
2018-03-16T23:49:20.471Z,98947
2018-03-16T23:59:23.233Z,98965
